createdAt,value
2019-03-28T00:01:44.966Z,98139.55
2019-03-28T00:04:17.202Z,98140.78
2019-03-28T00:06:49.179Z,98137.25
2019-03-28T00:09:21.527Z,98135.33
2019-03-28T00:11:53.663Z,98139.31
2019-03-28T00:14:25.527Z,98135.14
2019-03-28T00:16:58.159Z,98131.65
2019-03-28T00:19:31.186Z,98124.98
2019-03-28T00:22:05.532Z,98131.05
2019-03-28T00:24:49.519Z,98135.16
2019-03-28T00:27:21.633Z,98130.62
2019-03-28T00:29:53.387Z,98135.39
2019-03-28T00:32:26.364Z,98134.05
2019-03-28T00:34:58.203Z,98137.45
2019-03-28T00:37:31.048Z,98127.66
2019-03-28T00:40:03.241Z,98133.30
2019-03-28T00:42:36.156Z,98130.62
2019-03-28T00:45:08.746Z,98129.94
2019-03-28T00:47:40.823Z,98130.72
2019-03-28T00:50:14.053Z,98125.49
2019-03-28T00:52:45.876Z,98128.39
2019-03-28T00:55:18.020Z,98126.70
2019-03-28T00:57:49.911Z,98126.78
2019-03-28T01:00:22.394Z,98121.94
2019-03-28T01:02:54.214Z,98124.52
2019-03-28T01:05:26.502Z,98124.38
2019-03-28T01:07:58.375Z,98120.81
2019-03-28T01:10:31.619Z,98111.06
2019-03-28T01:13:03.422Z,98114.86
2019-03-28T01:15:36.215Z,98115.68
2019-03-28T01:18:08.137Z,98121.45
2019-03-28T01:20:39.911Z,98118.24
2019-03-28T01:23:11.804Z,98118.53
2019-03-28T01:25:43.914Z,98110.30
2019-03-28T01:28:16.372Z,98104.63
2019-03-28T01:30:48.670Z,98103.30
2019-03-28T01:33:20.860Z,98103.60
2019-03-28T01:35:53.163Z,98107.35
2019-03-28T01:38:25.016Z,98105.72
2019-03-28T01:40:58.447Z,98104.44
2019-03-28T01:43:31.315Z,98108.50
2019-03-28T01:46:03.176Z,98106.33
2019-03-28T01:48:35.274Z,98100.99
2019-03-28T01:51:07.334Z,98101.38
2019-03-28T01:53:39.379Z,98099.13
2019-03-28T01:56:11.561Z,98104.63
2019-03-28T01:58:43.372Z,98104.39
2019-03-28T02:01:15.308Z,98100.41
2019-03-28T02:03:47.114Z,98106.38
2019-03-28T02:06:18.902Z,98108.47
2019-03-28T02:08:50.728Z,98104.49
2019-03-28T02:11:23.499Z,98107.83
2019-03-28T02:13:56.302Z,98110.63
2019-03-28T02:16:28.511Z,98108.63
2019-03-28T02:19:01.323Z,98102.89
2019-03-28T02:21:33.097Z,98111.31
2019-03-28T02:24:05.003Z,98104.06
2019-03-28T02:26:37.568Z,98098.30
2019-03-28T02:29:09.781Z,98106.96
2019-03-28T02:31:43.124Z,98104.34
2019-03-28T02:34:15.027Z,98107.49
2019-03-28T02:36:46.976Z,98106.23
2019-03-28T02:39:18.804Z,98110.34
2019-03-28T02:41:50.700Z,98105.86
2019-03-28T02:44:22.727Z,98111.28
2019-03-28T02:46:54.500Z,98105.19
2019-03-28T02:49:26.631Z,98104.47
2019-03-28T02:51:58.616Z,98108.13
2019-03-28T02:54:31.618Z,98105.32
2019-03-28T02:57:03.715Z,98102.13
2019-03-28T02:59:35.495Z,98100.51
2019-03-28T03:02:07.961Z,98098.87
2019-03-28T03:04:41.205Z,98093.11
2019-03-28T03:07:13.153Z,98093.92
2019-03-28T03:09:45.263Z,98091.12
2019-03-28T03:12:17.216Z,98088.63
2019-03-28T03:14:49.295Z,98088.89
2019-03-28T03:17:21.836Z,98091.11
2019-03-28T03:19:53.631Z,98088.57
2019-03-28T03:22:25.418Z,98088.11
2019-03-28T03:24:57.580Z,98085.23
2019-03-28T03:27:29.432Z,98083.36
2019-03-28T03:30:03.615Z,98090.02
2019-03-28T03:32:35.255Z,98098.34
2019-03-28T03:35:08.272Z,98094.43
2019-03-28T03:37:40.116Z,98094.49
2019-03-28T03:40:12.624Z,98091.28
2019-03-28T03:42:44.410Z,98090.52
2019-03-28T03:45:16.796Z,98097.30
2019-03-28T03:47:48.924Z,98099.11
2019-03-28T03:50:30.942Z,98092.58
2019-03-28T03:53:02.816Z,98086.03
2019-03-28T03:55:35.183Z,98094.75
2019-03-28T03:58:15.599Z,98085.34
2019-03-28T04:00:41.282Z,98086.19
2019-03-28T04:03:13.761Z,98089.06
2019-03-28T04:05:46.066Z,98090.63
2019-03-28T04:08:18.116Z,98095.70
2019-03-28T04:10:49.945Z,98092.84
2019-03-28T04:13:21.979Z,98097.14
2019-03-28T04:15:53.825Z,98089.61
2019-03-28T04:18:25.959Z,98101.08
2019-03-28T04:20:57.853Z,98098.94
2019-03-28T04:23:29.923Z,98103.51
2019-03-28T04:26:03.384Z,98105.11
2019-03-28T04:28:36.038Z,98105.68
2019-03-28T04:31:08.164Z,98107.66
2019-03-28T04:33:40.241Z,98115.91
2019-03-28T04:36:12.028Z,98113.97
2019-03-28T04:38:43.847Z,98118.77
2019-03-28T04:41:15.638Z,98120.83
2019-03-28T04:43:47.730Z,98121.59
2019-03-28T04:46:19.798Z,98122.61
2019-03-28T04:48:52.463Z,98117.61
2019-03-28T04:51:24.773Z,98127.25
2019-03-28T04:53:56.909Z,98125.09
2019-03-28T04:56:28.726Z,98120.02
2019-03-28T04:59:02.017Z,98121.05
2019-03-28T05:01:35.296Z,98114.36
2019-03-28T05:04:07.482Z,98123.02
2019-03-28T05:06:39.351Z,98120.63
2019-03-28T05:09:11.500Z,98120.55
2019-03-28T05:11:43.328Z,98127.63
2019-03-28T05:14:15.581Z,98135.30
2019-03-28T05:16:47.387Z,98134.89
2019-03-28T05:19:19.215Z,98138.20
2019-03-28T05:21:51.418Z,98133.94
2019-03-28T05:24:25.493Z,98139.27
2019-03-28T05:26:57.122Z,98136.42
2019-03-28T05:29:29.123Z,98137.72
2019-03-28T05:32:02.076Z,98138.80
2019-03-28T05:34:34.544Z,98140.23
2019-03-28T05:37:06.424Z,98141.74
2019-03-28T05:39:38.457Z,98145.66
2019-03-28T05:42:10.265Z,98140.75
2019-03-28T05:44:42.448Z,98147.11
2019-03-28T05:47:14.471Z,98149.94
2019-03-28T05:49:46.252Z,98156.33
2019-03-28T05:52:18.051Z,98153.03
2019-03-28T05:54:50.181Z,98149.33
2019-03-28T05:57:22.152Z,98158.84
2019-03-28T05:59:54.923Z,98157.55
2019-03-28T06:02:26.711Z,98168.55
2019-03-28T06:05:00.452Z,98163.47
2019-03-28T06:07:32.609Z,98169.64
2019-03-28T06:10:04.827Z,98167.43
2019-03-28T06:12:36.782Z,98168.34
2019-03-28T06:15:09.264Z,98176.34
2019-03-28T06:17:41.137Z,98174.50
2019-03-28T06:20:13.531Z,98172.13
2019-03-28T06:22:45.738Z,98174.02
2019-03-28T06:25:18.613Z,98173.95
2019-03-28T06:27:50.404Z,98166.59
2019-03-28T06:30:23.042Z,98167.14
2019-03-28T06:32:54.915Z,98169.28
2019-03-28T06:35:26.692Z,98169.81
2019-03-28T06:37:58.687Z,98175.80
2019-03-28T06:40:31.455Z,98176.84
2019-03-28T06:43:04.677Z,98173.73
2019-03-28T06:45:36.815Z,98173.73
2019-03-28T06:48:08.969Z,98172.16
2019-03-28T06:50:41.850Z,98163.98
2019-03-28T06:53:13.883Z,98165.94
2019-03-28T06:55:45.682Z,98167.36
2019-03-28T06:58:17.476Z,98166.42
2019-03-28T07:00:49.620Z,98168.09
2019-03-28T07:03:21.457Z,98163.95
2019-03-28T07:05:53.250Z,98168.81
2019-03-28T07:08:26.076Z,98168.27
2019-03-28T07:10:58.296Z,98171.36
2019-03-28T07:13:30.060Z,98172.20
2019-03-28T07:16:02.498Z,98169.22
2019-03-28T07:18:34.301Z,98175.01
2019-03-28T07:21:06.378Z,98166.38
2019-03-28T07:23:39.051Z,98169.77
2019-03-28T07:26:10.934Z,98170.15
2019-03-28T07:28:42.711Z,98175.05
2019-03-28T07:31:14.764Z,98168.24
2019-03-28T07:33:46.645Z,98167.20
2019-03-28T07:36:18.613Z,98162.41
2019-03-28T07:38:51.329Z,98162.17
2019-03-28T07:41:23.145Z,98163.09
2019-03-28T07:43:55.308Z,98163.63
2019-03-28T07:46:27.214Z,98164.03
2019-03-28T07:48:59.449Z,98163.42
2019-03-28T07:51:32.277Z,98157.61
2019-03-28T07:54:05.446Z,98153.86
2019-03-28T07:56:37.507Z,98151.48
2019-03-28T07:59:09.614Z,98152.16
2019-03-28T08:01:41.784Z,98156.63
2019-03-28T08:04:14.006Z,98142.62
2019-03-28T08:06:49.950Z,98142.13
2019-03-28T08:09:20.018Z,98148.73
2019-03-28T08:11:51.905Z,98146.44
2019-03-28T08:14:24.171Z,98143.19
2019-03-28T08:16:56.232Z,98143.19
2019-03-28T08:19:28.277Z,98141.39
2019-03-28T08:22:00.252Z,98139.39
2019-03-28T08:24:33.138Z,98142.52
2019-03-28T08:27:06.511Z,98139.84
2019-03-28T08:29:39.131Z,98138.31
2019-03-28T08:32:14.953Z,98150.65
2019-03-28T08:34:47.177Z,98143.39
2019-03-28T08:37:19.690Z,98143.05
2019-03-28T08:39:51.561Z,98144.34
2019-03-28T08:42:23.377Z,98143.70
2019-03-28T08:44:55.249Z,98147.41
2019-03-28T08:47:27.091Z,98144.14
2019-03-28T08:49:59.239Z,98151.00
2019-03-28T08:52:32.287Z,98147.55
2019-03-28T08:55:08.350Z,98150.95
2019-03-28T08:57:39.548Z,98150.09
2019-03-28T09:00:11.851Z,98146.03
2019-03-28T09:02:43.667Z,98149.09
2019-03-28T09:05:15.656Z,98149.25
2019-03-28T09:07:47.853Z,98150.30
2019-03-28T09:10:19.824Z,98152.17
2019-03-28T09:12:55.217Z,98155.05
2019-03-28T09:15:27.331Z,98152.99
2019-03-28T09:18:00.339Z,98150.88
2019-03-28T09:20:32.859Z,98152.33
2019-03-28T09:23:04.997Z,98149.53
2019-03-28T09:25:36.785Z,98145.31
2019-03-28T09:28:08.590Z,98148.17
2019-03-28T09:30:48.690Z,98148.44
2019-03-28T09:33:15.829Z,98150.46
2019-03-28T09:35:47.648Z,98140.97
2019-03-28T09:38:19.502Z,98144.34
2019-03-28T09:40:51.427Z,98141.43
2019-03-28T09:43:23.315Z,98137.56
2019-03-28T09:45:56.215Z,98140.06
2019-03-28T09:48:28.025Z,98140.89
2019-03-28T09:51:00.462Z,98140.14
2019-03-28T09:53:32.643Z,98137.09
2019-03-28T09:56:04.739Z,98146.38
2019-03-28T09:58:36.635Z,98144.28
2019-03-28T10:01:08.575Z,98142.47
2019-03-28T10:03:40.467Z,98135.89
2019-03-28T10:06:12.292Z,98138.30
2019-03-28T10:08:44.175Z,98146.10
2019-03-28T10:11:16.468Z,98138.79
2019-03-28T10:13:48.365Z,98129.70
2019-03-28T10:16:20.201Z,98133.56
2019-03-28T10:18:52.172Z,98128.03
2019-03-28T10:21:24.322Z,98136.13
2019-03-28T10:23:56.229Z,98122.73
2019-03-28T10:26:28.039Z,98131.41
2019-03-28T10:29:00.265Z,98126.42
2019-03-28T10:31:32.960Z,98125.98
2019-03-28T10:34:04.930Z,98119.08
2019-03-28T10:36:36.733Z,98121.78
2019-03-28T10:39:10.316Z,98119.84
2019-03-28T10:41:42.826Z,98116.00
2019-03-28T10:44:15.072Z,98115.05
2019-03-28T10:46:47.293Z,98114.19
2019-03-28T10:49:19.224Z,98120.28
2019-03-28T10:51:51.159Z,98115.10
2019-03-28T10:54:25.591Z,98118.01
2019-03-28T10:56:58.058Z,98113.80
2019-03-28T10:59:31.093Z,98117.64
2019-03-28T11:02:02.999Z,98113.65
2019-03-28T11:04:35.984Z,98112.48
2019-03-28T11:07:07.954Z,98106.73
2019-03-28T11:09:40.072Z,98108.73
2019-03-28T11:12:11.988Z,98110.86
2019-03-28T11:14:46.258Z,98107.34
2019-03-28T11:17:17.444Z,98108.80
2019-03-28T11:19:49.753Z,98106.39
2019-03-28T11:22:22.218Z,98102.84
2019-03-28T11:24:54.142Z,98096.91
2019-03-28T11:27:25.977Z,98101.30
2019-03-28T11:29:59.542Z,98101.81
2019-03-28T11:32:35.772Z,98098.10
2019-03-28T11:35:07.050Z,98101.09
2019-03-28T11:37:39.168Z,98096.27
2019-03-28T11:40:12.180Z,98094.87
2019-03-28T11:42:44.559Z,98092.73
2019-03-28T11:45:16.554Z,98087.05
2019-03-28T11:47:48.399Z,98086.86
2019-03-28T11:50:20.410Z,98094.95
2019-03-28T11:52:52.251Z,98090.89
2019-03-28T11:55:24.200Z,98085.11
2019-03-28T11:57:56.598Z,98088.64
2019-03-28T12:00:29.507Z,98084.98
2019-03-28T12:03:03.463Z,98081.55
2019-03-28T12:05:35.645Z,98086.13
2019-03-28T12:08:08.656Z,98080.47
2019-03-28T12:10:41.033Z,98085.39
2019-03-28T12:13:13.219Z,98081.22
2019-03-28T12:15:45.054Z,98081.64
2019-03-28T12:18:17.153Z,98079.51
2019-03-28T12:20:49.703Z,98075.66
2019-03-28T12:23:22.393Z,98071.01
2019-03-28T12:25:55.322Z,98076.93
2019-03-28T12:28:27.818Z,98067.03
2019-03-28T12:31:00.017Z,98077.66
2019-03-28T12:33:33.362Z,98073.20
2019-03-28T12:36:05.224Z,98070.57
2019-03-28T12:38:37.372Z,98072.55
2019-03-28T12:41:09.376Z,98070.59
2019-03-28T12:43:41.659Z,98068.39
2019-03-28T12:46:13.936Z,98061.34
2019-03-28T12:48:45.754Z,98055.94
2019-03-28T12:51:17.603Z,98058.22
2019-03-28T12:53:49.447Z,98057.97
2019-03-28T12:56:21.847Z,98065.14
2019-03-28T12:58:53.736Z,98057.93
2019-03-28T13:01:25.589Z,98057.22
2019-03-28T13:03:57.394Z,98059.92
2019-03-28T13:06:29.560Z,98043.48
2019-03-28T13:09:01.820Z,98049.72
2019-03-28T13:11:35.564Z,98048.61
2019-03-28T13:14:07.725Z,98049.53
2019-03-28T13:16:39.595Z,98045.00
2019-03-28T13:19:11.458Z,98041.17
2019-03-28T13:21:43.576Z,98043.36
2019-03-28T13:24:16.029Z,98043.66
2019-03-28T13:26:47.873Z,98038.44
2019-03-28T13:29:19.744Z,98043.91
2019-03-28T13:31:51.734Z,98039.93
2019-03-28T13:34:24.309Z,98035.82
2019-03-28T13:36:56.403Z,98039.12
2019-03-28T13:39:28.703Z,98034.72
2019-03-28T13:42:00.721Z,98034.95
2019-03-28T13:44:33.584Z,98025.91
2019-03-28T13:47:06.557Z,98030.39
2019-03-28T13:49:39.087Z,98022.25
2019-03-28T13:52:11.280Z,98015.66
2019-03-28T13:54:43.428Z,98024.41
2019-03-28T13:57:15.370Z,98017.27
2019-03-28T13:59:47.534Z,98016.17
2019-03-28T14:02:19.387Z,98020.19
2019-03-28T14:04:51.249Z,98019.69
2019-03-28T14:07:23.211Z,98016.80
2019-03-28T14:09:55.337Z,98019.81
2019-03-28T14:12:27.551Z,98013.34
2019-03-28T14:14:59.393Z,98016.33
2019-03-28T14:17:34.718Z,98018.09
2019-03-28T14:20:06.044Z,98010.81
2019-03-28T14:22:39.316Z,98011.05
2019-03-28T14:25:11.335Z,98005.40
2019-03-28T14:27:43.434Z,98015.52
2019-03-28T14:30:15.637Z,98010.20
2019-03-28T14:32:53.409Z,98014.34
2019-03-28T14:35:21.003Z,98018.73
2019-03-28T14:37:53.113Z,98016.33
2019-03-28T14:40:24.955Z,98017.79
2019-03-28T14:42:57.041Z,98020.91
2019-03-28T14:45:29.309Z,98018.00
2019-03-28T14:48:01.464Z,98024.03
2019-03-28T14:50:38.803Z,98021.49
2019-03-28T14:53:11.029Z,98021.95
2019-03-28T14:55:43.202Z,98015.80
2019-03-28T14:58:15.111Z,98016.48
2019-03-28T15:00:55.141Z,98014.71
2019-03-28T15:03:27.703Z,98019.80
2019-03-28T15:06:00.729Z,98020.45
2019-03-28T15:08:33.542Z,98015.06
2019-03-28T15:11:05.717Z,98011.91
2019-03-28T15:13:40.335Z,98011.89
2019-03-28T15:16:11.432Z,98009.30
2019-03-28T15:18:44.619Z,98013.02
2019-03-28T15:21:17.043Z,98009.93
2019-03-28T15:23:49.503Z,98013.41
2019-03-28T15:26:21.511Z,98010.70
2019-03-28T15:28:53.687Z,98007.00
2019-03-28T15:31:25.676Z,98009.66
2019-03-28T15:34:00.388Z,98007.39
2019-03-28T15:36:33.596Z,98005.20
2019-03-28T15:39:07.790Z,98011.17
2019-03-28T15:41:41.796Z,98006.72
2019-03-28T15:44:14.049Z,98007.11
2019-03-28T15:46:46.379Z,98002.06
2019-03-28T15:49:18.363Z,98005.95
2019-03-28T15:51:50.435Z,98004.00
2019-03-28T15:54:22.641Z,98001.85
2019-03-28T15:56:54.479Z,98000.42
2019-03-28T15:59:26.395Z,98000.33
2019-03-28T16:02:00.136Z,97997.61
2019-03-28T16:04:31.971Z,97997.47
2019-03-28T16:07:03.803Z,97998.16
2019-03-28T16:09:36.363Z,97999.69
2019-03-28T16:12:08.824Z,97997.60
2019-03-28T16:14:40.729Z,97996.94
2019-03-28T16:17:12.854Z,97997.05
2019-03-28T16:19:45.701Z,97994.63
2019-03-28T16:22:17.712Z,97997.71
2019-03-28T16:24:49.550Z,97989.91
2019-03-28T16:27:21.384Z,97992.69
2019-03-28T16:29:54.388Z,97994.73
2019-03-28T16:32:26.470Z,97994.56
2019-03-28T16:34:58.426Z,98004.17
2019-03-28T16:37:30.348Z,98001.43
2019-03-28T16:40:02.293Z,98000.03
2019-03-28T16:42:34.463Z,97995.83
2019-03-28T16:45:08.005Z,97995.26
2019-03-28T16:47:39.848Z,98000.25
2019-03-28T16:50:12.511Z,97998.92
2019-03-28T16:52:49.327Z,97999.47
2019-03-28T16:55:26.509Z,98002.15
2019-03-28T16:57:54.846Z,98006.61
2019-03-28T17:00:38.279Z,98003.84
2019-03-28T17:03:10.768Z,97999.20
2019-03-28T17:05:46.947Z,98005.09
2019-03-28T17:08:18.365Z,98003.20
2019-03-28T17:10:53.121Z,98002.98
2019-03-28T17:13:25.660Z,98005.02
2019-03-28T17:15:57.585Z,98006.39
2019-03-28T17:18:29.606Z,98003.68
2019-03-28T17:21:01.574Z,98005.30
2019-03-28T17:23:33.915Z,98007.84
2019-03-28T17:26:06.115Z,98008.59
2019-03-28T17:28:38.425Z,98008.67
2019-03-28T17:31:10.671Z,98008.14
2019-03-28T17:33:42.887Z,98006.66
2019-03-28T17:36:15.039Z,98007.27
2019-03-28T17:38:46.876Z,98006.85
2019-03-28T17:41:18.806Z,98009.90
2019-03-28T17:43:50.638Z,98016.33
2019-03-28T17:46:23.123Z,98011.34
2019-03-28T17:48:57.601Z,98011.98
2019-03-28T17:51:28.697Z,98017.08
2019-03-28T17:54:00.535Z,98022.86
2019-03-28T17:56:32.392Z,98027.72
2019-03-28T17:59:04.248Z,98030.44
2019-03-28T18:01:36.131Z,98027.18
2019-03-28T18:04:08.041Z,98023.95
2019-03-28T18:06:40.520Z,98026.55
2019-03-28T18:09:13.175Z,98023.27
2019-03-28T18:11:45.352Z,98027.66
2019-03-28T18:14:17.520Z,98034.42
2019-03-28T18:16:49.418Z,98039.09
2019-03-28T18:19:21.253Z,98042.69
2019-03-28T18:22:03.422Z,98037.58
2019-03-28T18:24:30.333Z,98041.84
2019-03-28T18:27:00.965Z,98039.19
2019-03-28T18:29:35.937Z,98043.28
2019-03-28T18:32:07.977Z,98044.03
2019-03-28T18:34:40.157Z,98048.79
2019-03-28T18:37:12.088Z,98045.33
2019-03-28T18:39:43.963Z,98053.00
2019-03-28T18:42:16.284Z,98058.70
2019-03-28T18:44:48.117Z,98056.00
2019-03-28T18:47:20.346Z,98060.08
2019-03-28T18:49:52.324Z,98062.48
2019-03-28T18:52:24.473Z,98063.20
2019-03-28T18:54:56.404Z,98069.84
2019-03-28T18:57:29.208Z,98066.56
2019-03-28T19:00:01.055Z,98079.67
2019-03-28T19:02:34.058Z,98075.76
2019-03-28T19:05:19.198Z,98073.37
2019-03-28T19:07:41.001Z,98080.86
2019-03-28T19:10:14.659Z,98078.48
2019-03-28T19:12:47.815Z,98084.08
2019-03-28T19:15:21.273Z,98082.55
2019-03-28T19:17:53.113Z,98082.19
2019-03-28T19:20:25.036Z,98083.77
2019-03-28T19:22:56.938Z,98086.63
2019-03-28T19:25:28.789Z,98084.70
2019-03-28T19:28:00.955Z,98085.19
2019-03-28T19:30:35.876Z,98078.94
2019-03-28T19:33:07.831Z,98081.66
2019-03-28T19:35:41.760Z,98083.81
2019-03-28T19:38:14.417Z,98079.17
2019-03-28T19:40:46.915Z,98087.09
2019-03-28T19:43:20.742Z,98081.17
2019-03-28T19:45:52.779Z,98085.56
2019-03-28T19:48:24.957Z,98081.75
2019-03-28T19:50:57.106Z,98074.53
2019-03-28T19:53:29.021Z,98078.23
2019-03-28T19:56:01.225Z,98076.97
2019-03-28T19:58:35.202Z,98077.98
2019-03-28T20:01:07.520Z,98085.67
2019-03-28T20:03:39.535Z,98083.03
2019-03-28T20:06:21.560Z,98085.40
2019-03-28T20:08:45.302Z,98077.89
2019-03-28T20:11:17.512Z,98080.44
2019-03-28T20:13:50.039Z,98078.41
2019-03-28T20:16:22.456Z,98079.77
2019-03-28T20:18:54.743Z,98085.31
2019-03-28T20:21:26.592Z,98081.75
2019-03-28T20:23:58.877Z,98078.81
2019-03-28T20:26:31.783Z,98081.58
2019-03-28T20:29:04.706Z,98080.53
2019-03-28T20:31:36.916Z,98078.94
2019-03-28T20:34:08.874Z,98080.39
2019-03-28T20:36:43.824Z,98076.75
2019-03-28T20:39:16.202Z,98073.44
2019-03-28T20:41:48.298Z,98075.68
2019-03-28T20:44:20.265Z,98068.78
2019-03-28T20:46:52.119Z,98072.30
2019-03-28T20:49:24.011Z,98071.84
2019-03-28T20:51:55.936Z,98079.16
2019-03-28T20:54:28.156Z,98075.16
2019-03-28T20:57:00.513Z,98081.66
2019-03-28T20:59:32.807Z,98083.50
2019-03-28T21:02:04.839Z,98087.77
2019-03-28T21:04:37.285Z,98087.50
2019-03-28T21:07:09.354Z,98083.41
2019-03-28T21:09:42.099Z,98082.09
2019-03-28T21:12:14.347Z,98085.45
2019-03-28T21:14:46.337Z,98084.91
2019-03-28T21:17:18.171Z,98080.03
2019-03-28T21:19:50.462Z,98087.73
2019-03-28T21:22:22.298Z,98077.80
2019-03-28T21:24:54.218Z,98078.00
2019-03-28T21:27:26.623Z,98071.14
2019-03-28T21:29:58.606Z,98071.84
2019-03-28T21:32:30.864Z,98061.59
2019-03-28T21:35:03.009Z,98061.77
2019-03-28T21:37:35.250Z,98063.34
2019-03-28T21:40:07.753Z,98061.11
2019-03-28T21:42:39.634Z,98066.44
2019-03-28T21:45:11.904Z,98063.22
2019-03-28T21:47:43.733Z,98063.56
2019-03-28T21:50:15.948Z,98062.91
2019-03-28T21:52:48.237Z,98056.00
2019-03-28T21:55:20.015Z,98061.77
2019-03-28T21:57:51.826Z,98052.66
2019-03-28T22:00:23.799Z,98054.33
2019-03-28T22:02:55.767Z,98053.62
2019-03-28T22:05:28.931Z,98048.09
2019-03-28T22:08:01.673Z,98054.38
2019-03-28T22:10:34.818Z,98051.63
2019-03-28T22:13:07.236Z,98049.55
2019-03-28T22:15:39.245Z,98057.47
2019-03-28T22:18:11.118Z,98048.50
2019-03-28T22:20:43.706Z,98044.77
2019-03-28T22:23:16.548Z,98047.59
2019-03-28T22:25:48.464Z,98045.09
2019-03-28T22:28:20.566Z,98048.70
2019-03-28T22:30:52.384Z,98039.28
2019-03-28T22:33:24.409Z,98039.73
2019-03-28T22:35:56.533Z,98037.89
2019-03-28T22:38:28.616Z,98032.34
2019-03-28T22:41:02.454Z,98035.17
2019-03-28T22:43:34.555Z,98033.80
2019-03-28T22:46:06.775Z,98038.30
2019-03-28T22:48:39.907Z,98029.53
2019-03-28T22:51:12.260Z,98027.22
2019-03-28T22:53:44.369Z,98021.09
2019-03-28T22:56:17.477Z,98018.97
2019-03-28T22:58:49.373Z,98025.47
2019-03-28T23:01:21.336Z,98022.41
2019-03-28T23:03:54.826Z,98025.15
2019-03-28T23:06:27.043Z,98022.41
2019-03-28T23:08:58.920Z,98018.40
2019-03-28T23:11:31.360Z,98018.27
2019-03-28T23:14:05.140Z,98009.86
2019-03-28T23:16:37.343Z,98017.10
2019-03-28T23:19:11.842Z,98015.11
2019-03-28T23:21:42.843Z,98012.00
2019-03-28T23:24:15.358Z,98011.56
2019-03-28T23:26:47.151Z,98003.85
2019-03-28T23:29:19.158Z,98002.15
2019-03-28T23:31:50.962Z,97999.30
2019-03-28T23:34:23.142Z,98010.55
2019-03-28T23:36:56.443Z,98008.38
2019-03-28T23:39:28.278Z,98005.13
2019-03-28T23:42:00.347Z,97999.72
2019-03-28T23:44:32.158Z,98009.46
2019-03-28T23:47:04.772Z,98009.73
2019-03-28T23:49:38.777Z,98012.20
2019-03-28T23:52:11.100Z,98012.55
2019-03-28T23:54:43.005Z,98007.62
2019-03-28T23:57:14.843Z,98010.53
2019-03-28T23:59:46.912Z,98008.81
